Time;durP1;ratioP1;P1;durP2;ratioP2;P2;SDS_P1;SDS_P2;PMS_P1;PMS_P2;Temp;Humidity;BMP_temperature;BMP_pressure;BME280_temperature;BME280_humidity;BME280_pressure;Samples;Min_cycle;Max_cycle;Signal;HPM_P1;HPM_P2
2022/10/25 00:01:15;;;;;;;1.10;0.97;;;9.70;99.90;;;;;;5075152;28;20457;-80
2022/10/25 00:03:41;;;;;;;3.27;1.13;;;9.80;99.90;;;;;;5075443;28;20520;-80
2022/10/25 00:06:09;;;;;;;2.93;1.23;;;9.90;99.90;;;;;;5075244;28;20489;-80
2022/10/25 00:08:36;;;;;;;1.30;1.07;;;10.00;99.90;;;;;;5074747;28;20453;-80
2022/10/25 00:11:04;;;;;;;1.70;1.20;;;10.00;99.90;;;;;;5073832;28;20502;-80
2022/10/25 00:13:31;;;;;;;2.73;1.40;;;10.10;99.90;;;;;;5074944;28;20527;-79
2022/10/25 00:15:57;;;;;;;3.90;1.47;;;10.10;99.90;;;;;;5075014;28;20551;-80
2022/10/25 00:18:26;;;;;;;1.60;1.00;;;10.10;99.90;;;;;;5074918;28;20456;-80
2022/10/25 00:20:53;;;;;;;2.40;1.00;;;10.10;99.90;;;;;;5074752;28;20829;-79
2022/10/25 00:23:20;;;;;;;2.10;1.50;;;10.10;99.90;;;;;;5074823;28;20445;-79
2022/10/25 00:25:47;;;;;;;2.60;1.70;;;10.20;99.90;;;;;;5073368;28;21038;-79
2022/10/25 00:28:13;;;;;;;1.43;0.90;;;10.20;99.90;;;;;;5074993;28;20453;-80
2022/10/25 00:30:40;;;;;;;9.83;1.67;;;10.30;99.90;;;;;;5074803;28;20441;-81
2022/10/25 00:33:07;;;;;;;2.33;1.30;;;10.30;99.90;;;;;;5074667;28;20454;-80
2022/10/25 00:35:37;;;;;;;2.10;0.87;;;10.30;99.90;;;;;;5074557;28;20462;-79
2022/10/25 00:38:04;;;;;;;2.90;1.10;;;;;;;;;;5074743;28;20460;-80
2022/10/25 00:40:30;;;;;;;3.20;1.30;;;10.50;99.90;;;;;;5073486;28;20456;-79
2022/10/25 00:42:57;;;;;;;2.27;1.10;;;10.50;99.90;;;;;;5074482;28;20450;-80
2022/10/25 00:45:26;;;;;;;3.03;0.90;;;10.50;99.90;;;;;;5074394;28;20594;-78
2022/10/25 00:47:57;;;;;;;1.70;0.80;;;10.60;99.90;;;;;;5074449;28;20454;-80
2022/10/25 00:50:35;;;;;;;4.23;1.27;;;10.70;99.90;;;;;;5074184;28;20452;-80
2022/10/25 00:53:08;;;;;;;3.47;1.30;;;10.80;99.90;;;;;;5074326;28;20446;-80
2022/10/25 00:55:39;;;;;;;5.60;1.40;;;10.80;99.90;;;;;;5072972;28;20446;-80
2022/10/25 00:58:13;;;;;;;3.10;1.17;;;10.80;99.90;;;;;;5074158;28;20535;-80
2022/10/25 01:00:40;;;;;;;2.30;1.20;;;10.80;99.90;;;;;;5074329;28;20446;-80
2022/10/25 01:03:07;;;;;;;2.20;1.30;;;10.80;99.90;;;;;;5073991;28;20441;-80
2022/10/25 01:05:34;;;;;;;1.40;1.10;;;10.80;99.90;;;;;;5074182;28;20496;-80
2022/10/25 01:08:01;;;;;;;1.93;1.50;;;10.80;99.90;;;;;;5074057;28;20452;-78
2022/10/25 01:10:29;;;;;;;1.70;1.10;;;10.80;99.90;;;;;;5073201;28;20473;-80
2022/10/25 01:12:56;;;;;;;11.00;1.30;;;10.80;99.90;;;;;;5073969;28;20452;-80
2022/10/25 01:15:28;;;;;;;7.43;1.20;;;10.80;99.90;;;;;;5073855;28;20446;-78
2022/10/25 01:18:02;;;;;;;5.10;1.37;;;10.80;99.90;;;;;;5073815;28;20445;-80
2022/10/25 01:21:10;;;;;;;4.40;1.50;;;10.90;99.90;;;;;;5073760;28;20442;-79
2022/10/25 01:23:54;;;;;;;1.60;1.20;;;10.70;99.90;;;;;;5073614;28;20472;-80
2022/10/25 01:26:55;;;;;;;2.30;1.00;;;10.60;99.90;;;;;;5072514;28;20497;-81
2022/10/25 01:29:48;;;;;;;1.80;1.10;;;10.60;99.90;;;;;;5070151;28;20952;-81
2022/10/25 01:32:22;;;;;;;1.10;1.00;;;10.60;99.90;;;;;;5073038;28;20441;-80
2022/10/25 01:34:56;;;;;;;1.40;1.30;;;10.50;99.90;;;;;;5073585;28;20461;-80
2022/10/25 01:37:30;;;;;;;3.10;1.33;;;10.40;99.90;;;;;;5073567;28;20486;-80
2022/10/25 01:40:04;;;;;;;1.30;0.90;;;10.40;99.90;;;;;;5073353;28;20460;-80
2022/10/25 01:42:38;;;;;;;1.80;1.60;;;10.40;99.90;;;;;;5072114;28;20809;-80
2022/10/25 01:45:10;;;;;;;1.90;1.20;;;10.20;99.90;;;;;;5073494;28;20487;-81
2022/10/25 01:47:43;;;;;;;2.63;1.13;;;10.30;99.90;;;;;;5073268;28;20450;-80
2022/10/25 01:50:14;;;;;;;3.93;1.63;;;10.40;99.90;;;;;;5073278;28;20446;-80
2022/10/25 01:52:40;;;;;;;2.00;1.20;;;10.10;99.90;;;;;;5075476;28;20801;-80
2022/10/25 01:55:11;;;;;;;5.97;1.20;;;10.20;99.90;;;;;;5096352;28;20436;-78
2022/10/25 01:57:57;;;;;;;2.83;1.07;;;9.90;99.90;;;;;;5080916;28;20832;-79
2022/10/25 02:00:25;;;;;;;3.93;1.40;;;10.10;99.90;;;;;;5073160;28;20503;-81
2022/10/25 02:03:05;;;;;;;2.47;1.23;;;10.20;99.90;;;;;;5072819;28;20450;-80
2022/10/25 02:05:40;;;;;;;3.90;1.33;;;10.30;99.90;;;;;;5071366;28;20849;-80
2022/10/25 02:08:13;;;;;;;2.70;1.30;;;10.10;99.90;;;;;;5073294;28;20444;-80
2022/10/25 02:10:44;;;;;;;3.20;1.80;;;10.20;99.90;;;;;;5071662;28;20473;-81
2022/10/25 02:13:21;;;;;;;6.00;1.50;;;10.10;99.90;;;;;;5073061;28;20449;-79
2022/10/25 02:15:56;;;;;;;1.40;1.30;;;10.10;99.90;;;;;;5072923;28;20446;-78
2022/10/25 02:18:29;;;;;;;3.80;1.67;;;10.10;99.90;;;;;;5072987;28;20454;-81
2022/10/25 02:20:58;;;;;;;4.30;1.40;;;10.10;99.90;;;;;;5072882;28;20450;-79
2022/10/25 02:23:27;;;;;;;3.33;1.40;;;10.20;99.90;;;;;;5073004;28;20800;-79
2022/10/25 02:25:54;;;;;;;1.90;1.73;;;10.40;99.90;;;;;;5071569;28;20497;-80
2022/10/25 02:28:25;;;;;;;2.60;1.20;;;10.20;99.90;;;;;;5072881;28;20500;-80
2022/10/25 02:30:53;;;;;;;2.40;1.50;;;10.20;99.90;;;;;;5073178;28;20457;-80
2022/10/25 02:33:20;;;;;;;1.80;1.40;;;10.20;99.90;;;;;;5072855;28;20450;-80
2022/10/25 02:36:07;;;;;;;2.00;1.37;;;10.30;99.90;;;;;;5072736;28;20454;-80
2022/10/25 02:38:34;;;;;;;3.80;1.50;;;10.30;99.90;;;;;;5072827;28;20445;-79
2022/10/25 02:41:03;;;;;;;2.07;1.80;;;10.20;99.90;;;;;;5071485;28;20448;-79
2022/10/25 02:43:30;;;;;;;4.43;1.53;;;10.20;99.90;;;;;;5073911;28;20442;-78
2022/10/25 02:45:57;;;;;;;2.93;2.10;;;10.30;99.90;;;;;;5076782;28;20496;-80
2022/10/25 02:48:24;;;;;;;3.67;1.50;;;;;;;;;;5076706;28;20464;-80
2022/10/25 02:50:51;;;;;;;2.07;1.27;;;10.20;99.90;;;;;;5076692;28;20824;-80
2022/10/25 02:53:19;;;;;;;3.20;1.80;;;10.20;99.90;;;;;;5076555;28;20446;-81
2022/10/25 02:55:46;;;;;;;2.90;1.80;;;;;;;;;;5075120;28;20484;-80
2022/10/25 02:58:13;;;;;;;2.90;1.50;;;10.20;99.90;;;;;;5076144;28;20453;-80
2022/10/25 03:00:41;;;;;;;1.67;1.37;;;10.10;99.90;;;;;;5076405;28;20454;-81
2022/10/25 03:03:08;;;;;;;3.63;1.80;;;10.20;99.90;;;;;;5076372;28;20442;-81
2022/10/25 03:05:35;;;;;;;4.50;1.53;;;10.40;99.90;;;;;;5075830;28;20481;-79
2022/10/25 03:08:02;;;;;;;4.23;1.70;;;;;;;;;;5076343;28;20460;-80
2022/10/25 03:10:30;;;;;;;7.10;1.93;;;10.20;99.90;;;;;;5075424;28;20843;-80
2022/10/25 03:12:56;;;;;;;4.87;2.07;;;10.20;99.90;;;;;;5076117;28;20457;-80
2022/10/25 03:15:23;;;;;;;2.57;1.80;;;;;;;;;;5076143;28;20449;-80
2022/10/25 03:17:50;;;;;;;2.00;1.80;;;10.20;99.90;;;;;;5076134;28;20453;-79
2022/10/25 03:20:17;;;;;;;4.60;1.57;;;10.40;99.90;;;;;;5075910;28;20449;-78
2022/10/25 03:22:44;;;;;;;6.00;1.83;;;10.10;99.90;;;;;;5075810;28;20473;-77
2022/10/25 03:25:10;;;;;;;3.00;1.90;;;10.30;99.90;;;;;;5075820;28;20958;-81
2022/10/25 03:27:39;;;;;;;3.03;2.30;;;10.30;99.90;;;;;;5074610;28;20456;-80
2022/10/25 03:30:07;;;;;;;5.07;2.10;;;10.30;99.90;;;;;;5075815;28;20453;-79
2022/10/25 03:32:34;;;;;;;5.07;1.93;;;10.40;99.90;;;;;;5075901;28;20456;-80
2022/10/25 03:35:01;;;;;;;2.47;1.57;;;;;;;;;;5075751;28;20454;-80
2022/10/25 03:37:27;;;;;;;2.37;1.73;;;10.40;99.90;;;;;;5075612;28;20446;-80
2022/10/25 03:39:54;;;;;;;5.00;1.60;;;;;;;;;;5075664;28;20465;-78
2022/10/25 03:42:22;;;;;;;2.83;1.90;;;;;;;;;;5074346;28;20458;-78
2022/10/25 03:44:50;;;;;;;3.13;2.10;;;10.20;99.90;;;;;;5075628;28;20452;-79
2022/10/25 03:47:17;;;;;;;6.33;2.00;;;10.20;99.90;;;;;;5075094;28;20485;-78
2022/10/25 03:49:44;;;;;;;1.50;1.37;;;;;;;;;;5075426;28;20805;-79
2022/10/25 03:52:11;;;;;;;2.07;1.87;;;10.30;99.90;;;;;;5075434;28;20449;-78
2022/10/25 03:54:38;;;;;;;4.97;2.17;;;10.30;99.90;;;;;;5075916;28;20462;-81
2022/10/25 03:57:05;;;;;;;2.00;1.67;;;10.30;99.90;;;;;;5074150;28;20835;-80
2022/10/25 03:59:32;;;;;;;2.97;1.60;;;;;;;;;;5075183;28;20452;-79
2022/10/25 04:02:00;;;;;;;2.80;1.50;;;10.20;99.90;;;;;;5075236;28;20442;-80
2022/10/25 04:04:27;;;;;;;3.63;1.83;;;10.30;99.90;;;;;;5075080;28;20454;-80
2022/10/25 04:06:54;;;;;;;5.47;1.90;;;10.30;99.90;;;;;;5075034;28;20869;-80
2022/10/25 04:09:21;;;;;;;2.13;1.50;;;10.30;99.90;;;;;;5074956;28;20479;-80
2022/10/25 04:11:48;;;;;;;2.90;1.60;;;10.30;99.90;;;;;;5073886;28;20445;-80
2022/10/25 04:14:15;;;;;;;3.53;1.80;;;;;;;;;;5075045;28;20808;-80
2022/10/25 04:16:41;;;;;;;2.73;1.50;;;10.30;99.90;;;;;;5075002;28;20947;-81
2022/10/25 04:19:10;;;;;;;4.33;1.57;;;10.20;99.90;;;;;;5074762;28;20457;-77
2022/10/25 04:21:36;;;;;;;5.00;2.23;;;10.20;99.90;;;;;;5074803;28;20944;-81
2022/10/25 04:24:04;;;;;;;2.70;1.77;;;10.20;99.90;;;;;;5075008;28;20450;-81
2022/10/25 04:26:30;;;;;;;3.50;1.30;;;10.10;99.90;;;;;;5073511;28;20987;-80
2022/10/25 04:28:57;;;;;;;4.27;2.13;;;10.20;99.90;;;;;;5074678;28;20445;-79
2022/10/25 04:31:24;;;;;;;2.17;1.43;;;10.30;99.90;;;;;;5074252;28;20453;-77
2022/10/25 04:33:52;;;;;;;2.97;1.30;;;10.20;99.90;;;;;;5074740;28;20450;-78
2022/10/25 04:36:20;;;;;;;2.70;1.30;;;10.30;99.90;;;;;;5074608;28;20446;-81
2022/10/25 04:38:48;;;;;;;1.60;1.40;;;10.30;99.90;;;;;;5074480;28;20932;-80
2022/10/25 04:41:14;;;;;;;3.50;2.20;;;10.30;99.90;;;;;;5073384;28;20791;-80
2022/10/25 04:43:41;;;;;;;3.47;2.20;;;10.40;99.90;;;;;;5074531;28;20951;-79
2022/10/25 04:46:08;;;;;;;1.90;1.70;;;10.40;99.90;;;;;;5072688;28;20999;-78
2022/10/25 04:48:37;;;;;;;3.30;1.83;;;10.40;99.90;;;;;;5074492;28;20457;-80
2022/10/25 04:51:04;;;;;;;3.33;2.30;;;10.40;99.90;;;;;;5075040;28;20874;-78
2022/10/25 04:53:33;;;;;;;3.97;1.83;;;10.40;99.90;;;;;;5074242;28;20446;-80
2022/10/25 04:56:01;;;;;;;1.53;1.40;;;10.60;99.90;;;;;;5072923;28;20823;-78
2022/10/25 04:58:28;;;;;;;2.13;1.70;;;10.40;99.90;;;;;;5074137;28;20445;-78
2022/10/25 05:01:00;;;;;;;12.33;1.93;;;10.30;99.90;;;;;;5074007;28;20460;-81
2022/10/25 05:03:27;;;;;;;2.60;1.77;;;10.30;99.90;;;;;;5074039;28;20449;-78
2022/10/25 05:05:53;;;;;;;2.43;1.90;;;10.20;99.90;;;;;;5072959;28;20489;-78
2022/10/25 05:08:20;;;;;;;4.57;2.60;;;10.20;99.90;;;;;;5074210;28;20459;-80
2022/10/25 05:10:54;;;;;;;6.17;2.10;;;10.10;99.90;;;;;;5072633;28;20469;-80
2022/10/25 05:13:22;;;;;;;5.33;2.37;;;10.10;99.90;;;;;;5073749;28;20536;-79
2022/10/25 05:15:54;;;;;;;2.97;2.00;;;10.10;99.90;;;;;;5073815;28;20446;-80
2022/10/25 05:18:22;;;;;;;4.90;1.63;;;;;;;;;;5073807;28;20503;-78
2022/10/25 05:20:52;;;;;;;4.43;1.93;;;10.10;99.90;;;;;;5073675;28;20441;-79
2022/10/25 05:23:19;;;;;;;2.47;2.07;;;10.20;99.90;;;;;;5077081;28;20501;-78
2022/10/25 05:25:46;;;;;;;2.67;1.80;;;10.20;99.90;;;;;;5093539;28;20463;-78
2022/10/25 05:28:14;;;;;;;2.07;1.83;;;10.20;99.90;;;;;;5093857;28;20494;-79
2022/10/25 05:30:41;;;;;;;2.53;2.20;;;;;;;;;;5093486;28;20445;-78
2022/10/25 05:33:09;;;;;;;1.70;1.50;;;10.20;99.90;;;;;;5093715;28;20453;-77
2022/10/25 05:35:36;;;;;;;1.70;1.47;;;10.20;99.90;;;;;;5093637;28;20940;-80
2022/10/25 05:38:02;;;;;;;6.20;2.27;;;10.20;99.90;;;;;;5093576;28;20452;-78
2022/10/25 05:40:29;;;;;;;2.67;1.73;;;10.20;99.90;;;;;;5092494;28;20940;-78
2022/10/25 05:42:56;;;;;;;3.10;1.80;;;10.20;99.90;;;;;;5093517;28;20527;-79
2022/10/25 05:45:24;;;;;;;3.03;1.80;;;10.20;99.90;;;;;;5093497;28;20449;-80
2022/10/25 05:47:51;;;;;;;5.30;1.53;;;10.20;99.90;;;;;;5093284;28;20484;-80
2022/10/25 05:50:18;;;;;;;5.30;2.37;;;;;;;;;;5093404;28;20472;-79
2022/10/25 05:52:45;;;;;;;7.30;2.30;;;10.20;99.90;;;;;;5093267;28;20452;-78
2022/10/25 05:55:11;;;;;;;2.53;1.40;;;10.20;99.90;;;;;;5093178;28;20475;-80
2022/10/25 05:57:38;;;;;;;2.63;1.50;;;10.30;99.90;;;;;;5092038;28;20452;-78
2022/10/25 06:00:06;;;;;;;3.10;1.97;;;10.20;99.90;;;;;;5093237;28;20456;-77
2022/10/25 06:02:35;;;;;;;4.43;1.90;;;10.30;99.90;;;;;;5086934;28;20455;-77
2022/10/25 06:05:02;;;;;;;2.50;1.33;;;10.30;99.90;;;;;;5083731;28;20496;-78
2022/10/25 06:07:29;;;;;;;3.23;1.50;;;10.30;99.90;;;;;;5081749;28;20492;-75
2022/10/25 06:09:55;;;;;;;4.53;1.90;;;10.40;99.90;;;;;;5075411;28;20831;-78
2022/10/25 06:12:22;;;;;;;3.57;1.10;;;10.40;99.90;;;;;;5071687;28;20469;-76
2022/10/25 06:14:49;;;;;;;3.83;1.37;;;10.50;99.90;;;;;;5073146;28;20449;-76
2022/10/25 06:17:15;;;;;;;3.50;1.80;;;10.70;99.90;;;;;;5072695;28;20457;-77
2022/10/25 06:19:44;;;;;;;3.57;1.53;;;10.50;99.90;;;;;;5073126;28;20456;-75
2022/10/25 06:22:10;;;;;;;3.10;2.17;;;10.50;99.90;;;;;;5072699;28;20446;-77
2022/10/25 06:24:37;;;;;;;2.73;1.60;;;;;;;;;;5072768;28;20449;-79
2022/10/25 06:27:04;;;;;;;7.30;3.70;;;10.50;99.90;;;;;;5071451;28;20728;-77
2022/10/25 06:29:31;;;;;;;2.00;1.43;;;10.60;99.90;;;;;;5072676;28;20951;-78
2022/10/25 06:31:58;;;;;;;2.00;1.67;;;10.60;99.90;;;;;;5072781;28;20540;-79
2022/10/25 06:34:25;;;;;;;1.77;1.67;;;10.90;99.90;;;;;;5072770;28;20441;-79
2022/10/25 06:36:53;;;;;;;1.93;1.43;;;10.60;99.90;;;;;;5072505;28;20448;-78
2022/10/25 06:39:19;;;;;;;1.67;1.57;;;10.70;99.90;;;;;;5072814;28;20448;-78
2022/10/25 06:41:46;;;;;;;5.00;1.50;;;10.80;99.90;;;;;;5071864;28;20452;-78
2022/10/25 06:44:13;;;;;;;3.80;1.63;;;10.70;99.90;;;;;;5072373;28;20441;-80
2022/10/25 06:46:41;;;;;;;3.30;1.87;;;10.90;99.90;;;;;;5072771;28;20477;-79
2022/10/25 06:49:09;;;;;;;4.00;2.50;;;10.90;99.90;;;;;;5072511;28;20450;-80
2022/10/25 06:51:36;;;;;;;6.20;2.13;;;11.10;99.90;;;;;;5072594;28;20450;-81
2022/10/25 06:54:07;;;;;;;2.87;2.40;;;10.90;99.90;;;;;;5072197;28;20473;-81
2022/10/25 06:56:34;;;;;;;1.20;1.10;;;11.00;99.90;;;;;;5071170;28;20456;-81
2022/10/25 06:59:01;;;;;;;8.10;3.07;;;11.00;99.90;;;;;;5072262;28;20797;-81
2022/10/25 07:01:28;;;;;;;2.50;1.53;;;;;;;;;;5072295;28;20449;-80
2022/10/25 07:03:55;;;;;;;2.17;1.97;;;11.00;99.90;;;;;;5072254;28;20449;-81
2022/10/25 07:06:24;;;;;;;2.20;1.53;;;11.10;99.90;;;;;;5072304;28;20456;-79
2022/10/25 07:08:54;;;;;;;2.77;2.30;;;11.30;99.90;;;;;;5072242;28;20803;-81
2022/10/25 07:11:27;;;;;;;2.73;2.53;;;11.80;99.90;;;;;;5071189;28;20474;-80
2022/10/25 07:13:57;;;;;;;3.10;1.73;;;11.60;99.90;;;;;;5072283;28;20549;-82
2022/10/25 07:16:24;;;;;;;3.70;1.87;;;11.70;99.90;;;;;;5072157;28;20450;-81
2022/10/25 07:18:52;;;;;;;1.60;1.47;;;12.00;99.90;;;;;;5072373;28;20449;-81
2022/10/25 07:21:20;;;;;;;5.43;1.53;;;12.00;99.90;;;;;;5072151;28;20446;-80
2022/10/25 07:23:48;;;;;;;3.33;1.33;;;12.10;99.90;;;;;;5070893;28;20449;-81
2022/10/25 07:26:17;;;;;;;1.90;1.30;;;12.20;99.90;;;;;;5070945;28;20450;-80
2022/10/25 07:28:46;;;;;;;3.97;1.27;;;13.00;99.90;;;;;;5072131;28;20805;-81
2022/10/25 07:31:14;;;;;;;4.03;1.10;;;13.10;99.90;;;;;;5075882;28;20449;-82
2022/10/25 07:33:41;;;;;;;5.30;1.10;;;13.30;99.90;;;;;;5075719;28;20450;-80
2022/10/25 07:36:09;;;;;;;2.17;1.43;;;13.30;99.90;;;;;;5075569;28;20945;-81
2022/10/25 07:38:35;;;;;;;2.50;0.90;;;13.30;99.90;;;;;;5075612;28;20449;-80
2022/10/25 07:41:02;;;;;;;1.87;1.33;;;13.30;99.90;;;;;;5074228;28;20799;-81
2022/10/25 07:43:29;;;;;;;3.00;1.20;;;13.50;99.90;;;;;;5075281;28;20446;-82
2022/10/25 07:45:57;;;;;;;1.17;0.93;;;13.70;99.90;;;;;;5076132;28;20453;-79
2022/10/25 07:48:24;;;;;;;1.43;0.97;;;;;;;;;;5101040;28;20858;-80
2022/10/25 07:50:51;;;;;;;3.30;1.50;;;;;;;;;;5095553;28;20462;-80
2022/10/25 07:53:19;;;;;;;1.73;1.00;;;;;;;;;;5095315;28;20837;-80
2022/10/25 07:55:50;;;;;;;1.00;0.90;;;14.20;99.90;;;;;;5094370;28;20452;-80
2022/10/25 07:58:17;;;;;;;7.33;1.30;;;;;;;;;;5095451;28;20498;-80
2022/10/25 08:00:44;;;;;;;1.63;1.07;;;;;;;;;;5092959;28;20453;-82
2022/10/25 08:03:14;;;;;;;1.40;1.10;;;14.80;99.90;;;;;;5095144;28;20437;-81
2022/10/25 08:05:43;;;;;;;4.20;1.37;;;14.90;99.90;;;;;;5095377;28;20455;-81
2022/10/25 08:08:10;;;;;;;3.10;1.40;;;;;;;;;;5095362;28;20583;-80
2022/10/25 08:10:37;;;;;;;2.27;1.20;;;14.50;99.90;;;;;;5093850;28;20480;-80
2022/10/25 08:13:04;;;;;;;2.37;1.10;;;;;;;;;;5095319;28;20449;-80
2022/10/25 08:15:31;;;;;;;2.30;1.20;;;;;;;;;;5095219;28;20449;-81
2022/10/25 08:17:59;;;;;;;1.53;1.00;;;14.30;99.90;;;;;;5095154;28;20448;-82
2022/10/25 08:20:30;;;;;;;2.27;1.10;;;15.80;99.90;;;;;;5095289;28;20981;-81
2022/10/25 08:22:58;;;;;;;1.60;1.20;;;15.10;99.90;;;;;;5092409;28;20459;-83
2022/10/25 08:25:24;;;;;;;1.30;0.93;;;14.80;99.90;;;;;;5095013;28;20457;-79
2022/10/25 08:27:52;;;;;;;2.33;1.13;;;;;;;;;;5094439;28;20495;-81
2022/10/25 08:30:18;;;;;;;3.87;1.13;;;15.40;99.90;;;;;;5094941;28;20456;-81
2022/10/25 08:32:45;;;;;;;3.20;1.10;;;;;;;;;;5094780;28;20448;-82
2022/10/25 08:35:14;;;;;;;6.13;1.07;;;;;;;;;;5094614;28;20441;-83
2022/10/25 08:37:42;;;;;;;1.33;0.70;;;15.90;99.90;;;;;;5094702;28;20453;-82
2022/10/25 08:40:17;;;;;;;5.70;1.57;;;16.70;99.90;;;;;;5094768;28;20459;-86
2022/10/25 08:42:59;;;;;;;1.60;0.80;;;17.20;99.90;;;;;;5093614;28;20448;-82
2022/10/25 08:45:33;;;;;;;1.50;0.90;;;17.00;99.90;;;;;;5094577;28;20455;-85
2022/10/25 08:48:02;;;;;;;3.13;0.80;;;17.70;99.90;;;;;;5093918;28;20484;-82
2022/10/25 08:50:37;;;;;;;1.03;0.90;;;17.20;99.90;;;;;;5094521;28;20524;-83
2022/10/25 08:53:13;;;;;;;1.80;1.03;;;16.80;99.90;;;;;;5094545;28;20448;-82
2022/10/25 08:55:42;;;;;;;4.07;1.00;;;16.20;99.90;;;;;;5093798;28;20455;-90
2022/10/25 08:58:15;;;;;;;1.60;1.10;;;16.20;99.90;;;;;;5094717;28;20445;-87
2022/10/25 09:00:44;;;;;;;2.60;1.10;;;16.80;99.90;;;;;;5094082;28;20528;-84
2022/10/25 09:03:15;;;;;;;5.07;0.90;;;16.80;99.90;;;;;;5094136;28;20443;-85
2022/10/25 09:05:48;;;;;;;4.77;1.20;;;16.90;99.90;;;;;;5094127;28;20928;-83
2022/10/25 09:08:36;;;;;;;4.27;0.90;;;17.20;99.90;;;;;;5094335;28;20490;-83
2022/10/25 09:11:12;;;;;;;2.07;0.90;;;17.30;99.90;;;;;;5092992;28;20551;-85
2022/10/25 09:13:48;;;;;;;2.03;0.87;;;17.20;99.90;;;;;;5093576;28;20451;-79
2022/10/25 09:16:17;;;;;;;2.10;0.90;;;17.70;99.90;;;;;;5094146;28;20451;-84
2022/10/25 09:18:47;;;;;;;1.50;1.20;;;17.60;99.90;;;;;;5093829;28;20819;-82
2022/10/25 09:21:18;;;;;;;2.20;0.90;;;17.60;99.90;;;;;;5094059;28;20444;-80
2022/10/25 09:24:01;;;;;;;1.67;1.00;;;17.80;99.90;;;;;;5093812;28;20448;-80
2022/10/25 09:26:46;;;;;;;1.70;0.90;;;18.10;99.90;;;;;;5092700;28;20444;-80
2022/10/25 09:29:23;;;;;;;1.10;0.80;;;17.10;99.90;;;;;;5092792;28;20541;-79
2022/10/25 09:31:54;;;;;;;1.40;0.90;;;17.00;99.90;;;;;;5093761;28;20455;-79
2022/10/25 09:34:23;;;;;;;1.43;0.90;;;17.90;99.90;;;;;;5093713;28;20455;-76
2022/10/25 09:36:55;;;;;;;3.23;1.00;;;17.50;99.90;;;;;;5093673;28;20460;-74
2022/10/25 09:39:33;;;;;;;6.17;1.20;;;17.80;99.90;;;;;;5093713;28;20448;-74
2022/10/25 09:42:02;;;;;;;2.07;0.90;;;17.50;99.90;;;;;;5088331;28;20480;-78
2022/10/25 09:44:37;;;;;;;2.93;1.00;;;16.90;99.90;;;;;;5092775;28;20456;-74
2022/10/25 09:47:21;;;;;;;2.20;0.80;;;18.00;99.90;;;;;;5093433;28;20455;-74
2022/10/25 09:49:56;;;;;;;5.60;2.10;;;17.90;99.90;;;;;;5093303;28;20526;-75
2022/10/25 09:52:28;;;;;;;3.20;1.83;;;17.60;99.90;;;;;;5093019;28;20447;-76
2022/10/25 09:55:06;;;;;;;1.67;0.83;;;17.50;99.90;;;;;;5093308;28;20478;-75
2022/10/25 09:57:33;;;;;;;1.40;0.90;;;17.80;99.90;;;;;;5087314;28;20480;-75
2022/10/25 10:00:00;;;;;;;2.40;1.03;;;17.60;99.90;;;;;;5072948;28;20789;-76
2022/10/25 10:02:27;;;;;;;1.93;1.00;;;18.30;99.90;;;;;;5076090;28;20469;-75
2022/10/25 10:04:54;;;;;;;3.47;0.97;;;17.60;99.90;;;;;;5075113;28;21302;-74
2022/10/25 10:07:26;;;;;;;1.93;0.83;;;17.50;99.90;;;;;;5093028;28;20506;-74
2022/10/25 10:09:59;;;;;;;3.33;0.93;;;18.50;99.90;;;;;;5093088;28;20480;-75
2022/10/25 10:12:31;;;;;;;3.00;0.87;;;18.40;99.90;;;;;;5092025;28;20811;-83
2022/10/25 10:15:03;;;;;;;1.37;1.10;;;19.00;99.90;;;;;;5092822;28;20436;-77
2022/10/25 10:17:30;;;;;;;1.77;0.80;;;19.00;99.90;;;;;;5093061;28;20447;-78
2022/10/25 10:20:13;;;;;;;2.70;1.00;;;19.00;99.90;;;;;;5092838;28;20448;-77
2022/10/25 10:22:47;;;;;;;3.20;0.80;;;16.90;99.90;;;;;;5093127;28;20457;-80
2022/10/25 10:25:21;;;;;;;2.20;1.07;;;17.40;99.90;;;;;;5090940;28;20453;-79
2022/10/25 10:27:50;;;;;;;3.17;1.33;;;18.50;99.90;;;;;;5091104;28;20484;-77
2022/10/25 10:30:28;;;;;;;2.97;1.23;;;19.40;99.90;;;;;;5092372;28;20463;-75
2022/10/25 10:32:59;;;;;;;1.43;0.90;;;19.00;99.90;;;;;;5090040;28;20929;-80
2022/10/25 10:35:29;;;;;;;2.13;1.03;;;18.80;99.90;;;;;;5092489;28;20448;-78
2022/10/25 10:38:25;;;;;;;3.23;0.97;;;18.30;99.90;;;;;;5092463;28;20456;-78
2022/10/25 10:40:55;;;;;;;1.97;0.90;;;18.50;99.90;;;;;;5088938;28;20483;-78
2022/10/25 10:43:26;;;;;;;5.07;1.50;;;18.60;99.90;;;;;;5092305;28;20509;-77
2022/10/25 10:45:54;;;;;;;2.10;1.17;;;;;;;;;;5092480;28;20448;-81
2022/10/25 10:48:24;;;;;;;1.53;1.00;;;19.00;99.90;;;;;;5092363;28;20492;-77
2022/10/25 10:50:52;;;;;;;2.07;0.70;;;18.70;99.90;;;;;;5092253;28;20448;-77
2022/10/25 10:53:21;;;;;;;2.20;1.60;;;20.40;99.80;;;;;;5091895;28;20447;-79
2022/10/25 10:55:50;;;;;;;1.83;0.97;;;19.40;99.30;;;;;;5090975;28;20452;-78
2022/10/25 10:58:23;;;;;;;2.60;0.80;;;18.70;99.90;;;;;;5092270;28;20447;-78
2022/10/25 11:00:51;;;;;;;1.00;0.67;;;18.90;99.50;;;;;;5092147;28;20448;-76
2022/10/25 11:03:39;;;;;;;4.77;1.20;;;19.40;99.90;;;;;;5092188;28;20480;-76
2022/10/25 11:06:12;;;;;;;2.23;0.60;;;19.50;99.90;;;;;;5095684;28;20465;-78
2022/10/25 11:08:39;;;;;;;2.70;0.90;;;;;;;;;;5096078;28;20492;-77
2022/10/25 11:11:20;;;;;;;2.63;1.10;;;20.10;99.90;;;;;;5094814;28;20823;-81
2022/10/25 11:13:55;;;;;;;6.47;1.00;;;20.40;98.20;;;;;;5096921;28;20448;-77
2022/10/25 11:16:47;;;;;;;2.73;0.97;;;20.20;99.90;;;;;;5096179;28;20432;-76
2022/10/25 11:19:29;;;;;;;2.50;1.00;;;20.10;99.90;;;;;;5096161;28;20474;-80
2022/10/25 11:22:15;;;;;;;4.33;1.03;;;20.70;99.90;;;;;;5096230;28;20444;-78
2022/10/25 11:24:52;;;;;;;2.50;1.10;;;20.60;99.90;;;;;;5096163;28;20943;-76
2022/10/25 11:27:28;;;;;;;2.50;0.90;;;20.40;99.90;;;;;;5094992;28;20444;-76
2022/10/25 11:30:14;;;;;;;5.57;1.43;;;19.90;96.20;;;;;;5096123;28;20954;-78
2022/10/25 11:33:20;;;;;;;1.47;1.10;;;20.30;95.60;;;;;;5096164;28;20444;-76
2022/10/25 11:36:23;;;;;;;3.73;1.17;;;20.50;95.60;;;;;;5095991;28;20452;-77
2022/10/25 11:39:04;;;;;;;2.00;0.73;;;20.70;99.90;;;;;;5093754;28;20456;-79
2022/10/25 11:41:42;;;;;;;3.43;0.90;;;20.10;99.90;;;;;;5094641;28;20448;-78
2022/10/25 11:44:26;;;;;;;1.40;0.70;;;20.50;99.90;;;;;;5095814;28;20450;-76
2022/10/25 11:47:01;;;;;;;2.47;1.10;;;20.50;99.90;;;;;;5095734;28;20455;-80
2022/10/25 11:49:42;;;;;;;1.83;0.90;;;20.80;94.50;;;;;;5095946;28;20491;-78
2022/10/25 11:52:41;;;;;;;1.67;0.70;;;20.70;94.20;;;;;;5095614;28;20449;-77
2022/10/25 11:55:21;;;;;;;1.30;0.83;;;20.30;94.80;;;;;;5095600;28;20935;-78
2022/10/25 11:57:57;;;;;;;0.80;0.60;;;20.20;95.20;;;;;;5094373;28;20445;-78
2022/10/25 12:00:30;;;;;;;4.20;0.90;;;19.90;94.70;;;;;;5095363;28;20825;-75
2022/10/25 12:03:12;;;;;;;1.43;0.90;;;19.30;95.40;;;;;;5095392;28;20814;-80
2022/10/25 12:05:46;;;;;;;3.00;0.80;;;19.50;96.10;;;;;;5095281;28;20476;-83
2022/10/25 12:08:29;;;;;;;1.43;0.63;;;20.10;94.90;;;;;;5090480;28;20526;-79
2022/10/25 12:11:02;;;;;;;1.37;0.80;;;20.60;95.00;;;;;;5094308;28;20476;-86
2022/10/25 12:13:31;;;;;;;1.37;0.83;;;19.80;94.40;;;;;;5092951;28;20441;-82
2022/10/25 12:15:59;;;;;;;5.30;1.37;;;20.30;93.80;;;;;;5095051;28;20448;-86
2022/10/25 12:18:32;;;;;;;0.80;0.60;;;20.10;93.30;;;;;;5095875;28;20785;-85
2022/10/25 12:20:59;;;;;;;3.13;1.00;;;;;;;;;;5095206;28;20448;-82
2022/10/25 12:23:28;;;;;;;0.73;0.63;;;19.80;94.40;;;;;;5095164;28;20809;-80
2022/10/25 12:25:59;;;;;;;1.80;0.80;;;19.80;94.10;;;;;;5094012;28;20452;-79
2022/10/25 12:28:35;;;;;;;0.60;0.60;;;20.40;93.60;;;;;;5094664;28;20880;-84
2022/10/25 12:31:11;;;;;;;1.60;0.80;;;20.20;93.10;;;;;;5094865;28;20459;-82
2022/10/25 12:33:44;;;;;;;1.77;0.90;;;20.30;92.30;;;;;;5094446;28;20463;-81
2022/10/25 12:36:17;;;;;;;1.43;0.77;;;20.00;92.70;;;;;;5094993;28;20449;-86
2022/10/25 12:38:44;;;;;;;1.77;0.63;;;;;;;;;;5094935;28;20433;-82
2022/10/25 12:41:19;;;;;;;1.00;0.60;;;19.80;93.20;;;;;;5094302;28;20445;-83
2022/10/25 12:43:59;;;;;;;2.43;1.03;;;20.80;93.00;;;;;;5094771;28;20888;-80
2022/10/25 12:46:54;;;;;;;1.50;0.60;;;20.30;92.60;;;;;;5094828;28;20459;-87
2022/10/25 12:49:41;;;;;;;2.20;0.80;;;20.20;99.90;;;;;;5094513;28;20495;-78
2022/10/25 12:52:29;;;;;;;3.00;0.70;;;20.20;92.60;;;;;;5094540;28;20445;-79
2022/10/25 12:55:18;;;;;;;1.47;0.80;;;20.60;99.90;;;;;;5094155;28;20455;-81
2022/10/25 12:57:55;;;;;;;2.57;0.80;;;20.90;99.90;;;;;;5093112;28;20455;-84
2022/10/25 13:00:23;;;;;;;3.00;0.93;;;20.60;91.70;;;;;;5087271;28;20449;-83
2022/10/25 13:03:27;;;;;;;1.57;0.80;;;20.90;94.80;;;;;;5078496;28;20469;-85
2022/10/25 13:06:29;;;;;;;1.90;0.90;;;20.80;98.10;;;;;;5074558;28;20821;-85
2022/10/25 13:09:02;;;;;;;3.47;0.80;;;20.90;90.70;;;;;;5037577;28;20477;-83
2022/10/25 13:11:34;;;;;;;1.83;1.17;;;21.60;99.90;;;;;;5072647;28;20454;-85
2022/10/25 13:14:02;;;;;;;9.10;2.07;;;21.40;90.80;;;;;;5073832;28;20831;-86
2022/10/25 13:16:30;;;;;;;1.70;0.90;;;21.50;99.90;;;;;;5074642;28;20446;-86
2022/10/25 13:19:24;;;;;;;1.90;0.90;;;21.10;97.70;;;;;;5073613;28;20835;-83